Time;durP1;ratioP1;P1;durP2;ratioP2;P2;SDS_P1;SDS_P2;PMS_P1;PMS_P2;Temp;Humidity;BMP_temperature;BMP_pressure;BME280_temperature;BME280_humidity;BME280_pressure;Samples;Min_cycle;Max_cycle;Signal;HPM_P1;HPM_P2
2023/04/03 00:00:41;;;;;;;3.38;1.42;;;4.40;99.90;;;;;;5028120;28;20008;-69
2023/04/03 00:03:06;;;;;;;12.20;1.67;;;4.30;99.90;;;;;;5027965;28;20394;-69
2023/04/03 00:05:32;;;;;;;4.20;1.38;;;4.30;99.90;;;;;;5024697;28;20041;-69
2023/04/03 00:07:58;;;;;;;1.95;1.38;;;4.30;99.90;;;;;;5008978;28;20048;-69
2023/04/03 00:10:24;;;;;;;3.50;1.40;;;4.30;99.90;;;;;;5008608;28;20056;-72
2023/04/03 00:12:50;;;;;;;2.20;1.30;;;4.20;99.90;;;;;;5048748;28;20046;-69
2023/04/03 00:15:15;;;;;;;4.13;1.38;;;4.20;99.90;;;;;;5093409;28;20048;-69
2023/04/03 00:17:41;;;;;;;2.38;1.38;;;4.10;99.90;;;;;;5022880;28;20041;-69
2023/04/03 00:20:08;;;;;;;3.08;1.90;;;4.10;99.90;;;;;;5026624;28;20046;-69
2023/04/03 00:22:33;;;;;;;1.70;1.30;;;4.00;99.90;;;;;;5015025;28;20407;-69
2023/04/03 00:24:59;;;;;;;4.07;1.52;;;4.00;99.90;;;;;;5008847;28;20049;-68
2023/04/03 00:27:25;;;;;;;2.35;1.30;;;3.90;99.90;;;;;;5010796;28;20060;-71
2023/04/03 00:29:51;;;;;;;2.28;1.50;;;3.90;99.90;;;;;;5008334;28;20046;-69
2023/04/03 00:32:16;;;;;;;3.13;1.38;;;3.90;99.90;;;;;;5007896;28;20155;-69
2023/04/03 00:34:42;;;;;;;4.25;1.38;;;3.80;99.90;;;;;;5007062;28;20057;-69
2023/04/03 00:37:08;;;;;;;3.67;1.38;;;3.80;99.90;;;;;;5008158;28;20053;-69
2023/04/03 00:39:33;;;;;;;6.50;1.85;;;3.70;99.90;;;;;;5008116;28;20045;-69
2023/04/03 00:41:59;;;;;;;3.05;1.40;;;3.70;99.90;;;;;;5011279;28;20052;-69
2023/04/03 00:44:28;;;;;;;4.90;1.63;;;3.60;99.90;;;;;;5010419;28;20474;-70
2023/04/03 00:46:54;;;;;;;2.33;0.93;;;3.50;99.90;;;;;;5027016;28;20128;-69
2023/04/03 00:49:20;;;;;;;2.53;1.58;;;3.60;99.90;;;;;;5028072;28;20042;-69
2023/04/03 00:51:46;;;;;;;3.65;1.35;;;3.50;99.90;;;;;;5024893;28;20049;-69
2023/04/03 00:54:12;;;;;;;2.17;1.20;;;3.50;99.90;;;;;;5008429;28;20046;-69
2023/04/03 00:56:38;;;;;;;3.88;1.25;;;3.50;99.90;;;;;;5007701;28;20046;-69
2023/04/03 00:59:10;;;;;;;3.08;1.40;;;3.40;99.90;;;;;;5021150;28;20053;-69
2023/04/03 01:01:36;;;;;;;4.47;1.55;;;3.40;99.90;;;;;;5024794;28;20056;-69
2023/04/03 01:04:02;;;;;;;;;;;3.40;99.90;;;;;;4991149;28;20065;-69
2023/04/03 01:06:32;;;;;;;4.03;1.27;;;3.30;99.90;;;;;;5016235;28;19924;-71
2023/04/03 01:09:00;;;;;;;4.30;1.50;;;3.30;99.90;;;;;;5013232;28;20133;-69
2023/04/03 01:11:26;;;;;;;5.75;1.52;;;3.30;99.90;;;;;;5023085;28;20138;-69
2023/04/03 01:13:53;;;;;;;4.07;1.50;;;3.20;99.90;;;;;;5027257;28;20050;-68
2023/04/03 01:16:19;;;;;;;2.05;1.27;;;3.20;99.90;;;;;;5027257;28;20037;-69
2023/04/03 01:18:45;;;;;;;3.65;1.50;;;3.20;99.90;;;;;;5024866;28;20049;-68
2023/04/03 01:21:24;;;;;;;;;;;3.20;99.90;;;;;;5023960;28;20053;-68
2023/04/03 01:24:11;;;;;;;4.72;1.60;;;3.10;99.90;;;;;;4988067;28;19921;-68
2023/04/03 01:26:37;;;;;;;5.47;1.35;;;3.10;99.90;;;;;;4987731;28;20629;-69
2023/04/03 01:29:04;;;;;;;2.88;1.48;;;3.20;99.90;;;;;;4989495;28;20086;-68
2023/04/03 01:31:49;;;;;;;3.95;1.60;;;3.00;99.90;;;;;;4996982;28;20049;-71
2023/04/03 01:34:14;;;;;;;5.60;1.40;;;3.00;99.90;;;;;;5031060;28;20056;-68
2023/04/03 01:36:40;;;;;;;7.75;1.42;;;3.00;99.90;;;;;;5029631;28;20054;-69
2023/04/03 01:39:06;;;;;;;4.45;1.70;;;3.00;99.90;;;;;;5030998;28;20045;-68
2023/04/03 01:41:32;;;;;;;4.85;1.90;;;2.90;99.90;;;;;;5019648;28;20046;-70
2023/04/03 01:43:58;;;;;;;4.40;2.03;;;2.90;99.90;;;;;;5011219;28;20056;-69
2023/04/03 01:46:24;;;;;;;1.27;1.17;;;2.90;99.90;;;;;;5019083;28;20065;-69
2023/04/03 01:48:50;;;;;;;2.92;1.35;;;2.90;99.90;;;;;;5029955;28;20178;-68
2023/04/03 01:51:16;;;;;;;2.38;1.40;;;2.90;99.90;;;;;;5029636;28;20049;-68
2023/04/03 01:53:42;;;;;;;4.47;1.60;;;2.80;99.90;;;;;;5011139;28;20053;-69
2023/04/03 01:56:08;;;;;;;3.78;1.75;;;2.80;99.90;;;;;;4993599;28;20041;-68
2023/04/03 01:58:34;;;;;;;3.85;1.88;;;2.80;99.90;;;;;;5009787;28;20050;-69
2023/04/03 02:01:00;;;;;;;7.93;1.73;;;2.80;99.90;;;;;;5015966;28;20061;-69
2023/04/03 02:03:26;;;;;;;3.53;1.50;;;2.80;99.90;;;;;;5029127;28;20504;-68
2023/04/03 02:05:51;;;;;;;3.17;2.00;;;2.70;99.90;;;;;;5026611;28;20045;-68
2023/04/03 02:08:20;;;;;;;4.43;1.73;;;2.80;99.90;;;;;;5010687;28;20049;-70
2023/04/03 02:10:49;;;;;;;2.90;1.52;;;2.70;99.90;;;;;;5025107;28;20049;-69
2023/04/03 02:13:16;;;;;;;4.22;1.83;;;2.90;99.90;;;;;;5030405;28;20089;-69
2023/04/03 02:15:42;;;;;;;7.55;1.52;;;2.70;99.90;;;;;;4990181;28;20050;-69
2023/04/03 02:18:08;;;;;;;5.47;1.98;;;2.70;99.90;;;;;;4990324;28;20043;-68
2023/04/03 02:20:34;;;;;;;5.28;2.05;;;2.70;99.90;;;;;;4989841;28;20042;-71
2023/04/03 02:23:00;;;;;;;3.13;1.85;;;2.80;99.90;;;;;;4991011;28;20042;-69
2023/04/03 02:25:26;;;;;;;5.93;1.63;;;2.60;99.90;;;;;;4991198;28;20398;-69
2023/04/03 02:27:52;;;;;;;2.75;1.38;;;2.70;99.90;;;;;;5001423;28;20133;-69
2023/04/03 02:30:18;;;;;;;5.85;1.67;;;2.60;99.90;;;;;;5010498;28;20092;-68
2023/04/03 02:32:44;;;;;;;4.13;1.90;;;2.60;99.90;;;;;;5012585;28;20073;-69
2023/04/03 02:35:11;;;;;;;6.38;2.15;;;2.60;99.90;;;;;;5029214;28;20037;-69
2023/04/03 02:37:37;;;;;;;4.88;1.67;;;2.60;99.90;;;;;;5029863;28;20098;-71
2023/04/03 02:40:03;;;;;;;3.22;1.50;;;2.60;99.90;;;;;;5029689;28;20489;-69
2023/04/03 02:42:29;;;;;;;5.35;2.20;;;2.60;99.90;;;;;;5011022;28;20132;-68
2023/04/03 02:44:55;;;;;;;3.55;1.42;;;2.60;99.90;;;;;;5009275;28;20570;-69
2023/04/03 02:47:21;;;;;;;8.10;2.28;;;2.60;99.90;;;;;;4992222;28;20057;-69
2023/04/03 02:49:46;;;;;;;6.03;1.73;;;2.70;99.90;;;;;;5008685;28;20053;-69
2023/04/03 02:52:13;;;;;;;4.57;1.42;;;2.50;99.90;;;;;;5017173;28;20048;-69
2023/04/03 02:54:39;;;;;;;6.68;1.77;;;2.40;99.90;;;;;;5018940;28;20053;-68
2023/04/03 02:57:05;;;;;;;7.00;1.65;;;2.50;99.90;;;;;;5010269;28;20056;-68
2023/04/03 02:59:30;;;;;;;4.47;1.85;;;2.40;99.90;;;;;;5010162;28;20061;-69
2023/04/03 03:01:56;;;;;;;7.63;1.73;;;2.40;99.90;;;;;;5008513;28;20083;-68
2023/04/03 03:04:22;;;;;;;3.22;1.40;;;2.40;99.90;;;;;;5009651;28;20050;-69
2023/04/03 03:06:47;;;;;;;5.32;1.60;;;2.30;99.90;;;;;;5010203;28;20065;-69
2023/04/03 03:09:13;;;;;;;3.30;1.55;;;2.30;99.90;;;;;;5018220;28;20045;-69
2023/04/03 03:11:40;;;;;;;4.80;1.55;;;2.40;99.90;;;;;;5029098;28;20497;-72
2023/04/03 03:14:05;;;;;;;;;;;2.30;99.90;;;;;;5017101;28;20046;-69
2023/04/03 03:16:31;;;;;;;3.67;1.33;;;2.20;99.90;;;;;;5008503;28;19932;-69
2023/04/03 03:18:57;;;;;;;6.35;1.48;;;2.20;99.90;;;;;;5009025;28;20078;-69
2023/04/03 03:21:22;;;;;;;2.83;1.50;;;2.10;99.90;;;;;;5008912;28;20124;-69
2023/04/03 03:23:48;;;;;;;7.13;1.58;;;2.10;99.90;;;;;;5009326;28;20079;-69
2023/04/03 03:26:14;;;;;;;7.72;1.45;;;2.20;99.90;;;;;;5023876;28;20045;-68
2023/04/03 03:28:40;;;;;;;6.68;1.58;;;2.00;99.90;;;;;;5010373;28;20543;-71
2023/04/03 03:31:07;;;;;;;3.88;1.85;;;2.00;99.90;;;;;;5009798;28;20054;-69
2023/04/03 03:33:33;;;;;;;2.42;1.40;;;2.10;99.90;;;;;;5015956;28;20037;-69
2023/04/03 03:35:59;;;;;;;;;;;2.00;99.90;;;;;;5028337;28;20744;-69
2023/04/03 03:38:25;;;;;;;3.75;1.60;;;2.10;99.90;;;;;;5029089;28;19977;-69
2023/04/03 03:40:51;;;;;;;3.30;1.80;;;1.90;99.90;;;;;;5016054;28;20067;-69
2023/04/03 03:43:17;;;;;;;;;;;1.90;99.90;;;;;;5009832;28;20057;-68
2023/04/03 03:45:44;;;;;;;6.53;1.45;;;1.80;99.90;;;;;;5008601;28;20323;-69
2023/04/03 03:48:10;;;;;;;4.78;1.95;;;1.80;99.90;;;;;;5008346;28;20037;-69
2023/04/03 03:50:35;;;;;;;4.75;1.65;;;1.80;99.90;;;;;;4991042;28;20046;-69
2023/04/03 03:53:01;;;;;;;4.35;1.50;;;1.80;99.90;;;;;;5019412;28;20376;-69
2023/04/03 03:55:27;;;;;;;6.38;2.05;;;1.80;99.90;;;;;;5027178;28;20046;-69
2023/04/03 03:57:53;;;;;;;4.85;1.73;;;1.80;99.90;;;;;;5015691;28;20085;-69
2023/04/03 04:00:19;;;;;;;5.65;1.65;;;1.80;99.90;;;;;;5028670;28;20045;-69
2023/04/03 04:02:45;;;;;;;;;;;1.80;99.90;;;;;;5027972;28;20052;-69
2023/04/03 04:05:11;;;;;;;4.68;1.77;;;1.70;99.90;;;;;;5027670;28;19928;-68
2023/04/03 04:07:37;;;;;;;6.68;2.40;;;1.70;99.90;;;;;;5028557;28;20042;-69
2023/04/03 04:10:03;;;;;;;6.13;1.90;;;1.70;99.90;;;;;;4999832;28;20049;-68
2023/04/03 04:12:29;;;;;;;6.28;2.85;;;1.70;99.90;;;;;;5009771;28;20062;-68
2023/04/03 04:14:55;;;;;;;3.67;1.70;;;1.70;99.90;;;;;;5008145;28;20046;-69
2023/04/03 04:17:21;;;;;;;5.00;1.80;;;1.90;99.90;;;;;;5007892;28;20134;-69
2023/04/03 04:19:47;;;;;;;3.65;1.40;;;1.70;99.90;;;;;;5007107;28;20053;-69
2023/04/03 04:22:13;;;;;;;3.58;1.70;;;1.60;99.90;;;;;;5008790;28;20550;-69
2023/04/03 04:24:38;;;;;;;7.63;1.95;;;1.60;99.90;;;;;;5007903;28;20425;-68
2023/04/03 04:27:04;;;;;;;7.70;2.15;;;1.60;99.90;;;;;;5027840;28;20049;-69
2023/04/03 04:29:35;;;;;;;4.20;1.77;;;1.60;99.90;;;;;;5028249;28;20093;-69
2023/04/03 04:32:01;;;;;;;3.40;1.80;;;1.60;99.90;;;;;;5008529;28;20100;-69
2023/04/03 04:34:27;;;;;;;5.78;1.70;;;1.60;99.90;;;;;;5014209;28;20813;-69
2023/04/03 04:36:52;;;;;;;4.35;2.10;;;1.90;99.90;;;;;;5007611;28;20038;-69
2023/04/03 04:39:18;;;;;;;4.07;2.05;;;1.60;99.90;;;;;;5008585;28;20049;-69
2023/04/03 04:41:43;;;;;;;7.70;2.20;;;1.50;99.90;;;;;;5008240;28;20704;-72
2023/04/03 04:44:09;;;;;;;5.38;1.90;;;1.50;99.90;;;;;;5008299;28;20368;-68
2023/04/03 04:46:35;;;;;;;5.90;2.08;;;1.50;99.90;;;;;;5017021;28;20046;-68
2023/04/03 04:49:01;;;;;;;4.85;1.92;;;1.40;99.90;;;;;;5027240;28;20500;-68
2023/04/03 04:51:26;;;;;;;4.88;2.00;;;1.40;99.90;;;;;;5026568;28;20133;-69
2023/04/03 04:53:52;;;;;;;6.80;2.10;;;1.40;99.90;;;;;;5013403;28;20046;-68
2023/04/03 04:56:18;;;;;;;9.88;2.28;;;1.40;99.90;;;;;;5019112;28;20073;-69
2023/04/03 04:58:43;;;;;;;4.28;2.28;;;1.40;99.90;;;;;;4974270;28;20119;-69
2023/04/03 05:01:10;;;;;;;6.53;2.15;;;1.50;99.90;;;;;;4961925;28;20059;-69
2023/04/03 05:03:36;;;;;;;4.53;2.13;;;1.40;99.90;;;;;;4968434;28;20050;-68
2023/04/03 05:06:02;;;;;;;12.32;2.25;;;1.40;99.90;;;;;;4967676;28;20069;-68
2023/04/03 05:08:28;;;;;;;6.25;2.00;;;1.40;99.90;;;;;;4968661;28;20043;-68
2023/04/03 05:10:54;;;;;;;3.17;1.63;;;1.40;99.90;;;;;;4968436;28;20046;-68
2023/04/03 05:13:20;;;;;;;5.72;1.85;;;1.40;99.90;;;;;;4975813;28;20096;-69
2023/04/03 05:15:46;;;;;;;6.40;2.00;;;1.30;99.90;;;;;;4988469;28;20054;-68
2023/04/03 05:18:12;;;;;;;7.53;2.20;;;1.30;99.90;;;;;;4980322;28;20062;-69
2023/04/03 05:20:38;;;;;;;;;;;1.30;99.90;;;;;;4968486;28;20129;-68
2023/04/03 05:23:04;;;;;;;6.53;2.20;;;1.30;99.90;;;;;;4968711;28;20470;-69
2023/04/03 05:25:30;;;;;;;3.45;1.73;;;1.20;99.90;;;;;;4969041;28;20138;-69
2023/04/03 05:27:56;;;;;;;5.43;2.05;;;1.20;99.90;;;;;;4968453;28;20039;-68
2023/04/03 05:30:21;;;;;;;;;;;1.30;99.90;;;;;;4978494;28;20084;-68
2023/04/03 05:32:48;;;;;;;9.30;2.85;;;1.30;99.90;;;;;;4986323;28;20390;-69
2023/04/03 05:35:13;;;;;;;6.13;1.92;;;1.30;99.90;;;;;;4979737;28;20133;-68
2023/04/03 05:37:39;;;;;;;5.13;1.58;;;1.20;99.90;;;;;;4968885;28;20142;-68
2023/04/03 05:40:06;;;;;;;6.65;2.15;;;1.30;99.90;;;;;;4974037;28;20160;-68
2023/04/03 05:42:32;;;;;;;4.55;1.92;;;1.30;99.90;;;;;;4988094;28;20084;-69
2023/04/03 05:44:58;;;;;;;5.78;2.35;;;1.30;99.90;;;;;;4986029;28;20706;-69
2023/04/03 05:47:24;;;;;;;4.13;2.25;;;1.30;99.90;;;;;;4948542;29;20043;-68
2023/04/03 05:49:49;;;;;;;6.00;1.80;;;1.40;99.90;;;;;;4948190;28;20054;-71
2023/04/03 05:52:23;;;;;;;9.15;2.22;;;1.30;99.90;;;;;;4949441;29;20101;-68
2023/04/03 05:54:48;;;;;;;4.30;1.73;;;1.30;99.90;;;;;;4949474;28;20047;-69
2023/04/03 05:57:15;;;;;;;3.58;1.75;;;1.30;99.90;;;;;;4966521;28;20050;-69
2023/04/03 05:59:42;;;;;;;3.75;1.88;;;1.40;99.90;;;;;;5007487;28;20100;-68
2023/04/03 06:02:12;;;;;;;5.22;1.90;;;1.30;99.90;;;;;;5024439;28;20091;-68
2023/04/03 06:04:38;;;;;;;6.80;1.48;;;1.30;99.90;;;;;;5007043;28;20050;-70
2023/04/03 06:07:04;;;;;;;10.77;2.45;;;1.30;99.90;;;;;;5006648;28;20068;-68
2023/04/03 06:09:30;;;;;;;3.92;2.20;;;1.40;99.90;;;;;;5026019;28;20494;-68
2023/04/03 06:11:58;;;;;;;8.18;1.60;;;1.40;99.90;;;;;;5026471;28;20130;-68
2023/04/03 06:14:25;;;;;;;4.50;1.75;;;1.50;99.90;;;;;;5026993;28;20056;-68
2023/04/03 06:16:52;;;;;;;2.38;1.33;;;1.40;99.90;;;;;;5028140;28;20128;-69
2023/04/03 06:19:17;;;;;;;5.72;1.90;;;1.50;99.90;;;;;;5028945;28;20042;-69
2023/04/03 06:21:43;;;;;;;3.08;1.60;;;1.50;99.90;;;;;;4998454;28;20470;-69
2023/04/03 06:24:12;;;;;;;2.58;1.50;;;1.60;99.90;;;;;;5012603;28;20504;-68
2023/04/03 06:26:37;;;;;;;4.70;1.40;;;1.80;99.90;;;;;;5019066;28;20045;-68
2023/04/03 06:29:03;;;;;;;4.78;1.75;;;1.70;99.90;;;;;;5009823;28;20693;-68
2023/04/03 06:31:29;;;;;;;4.95;1.88;;;1.70;99.90;;;;;;4991847;28;20049;-67
2023/04/03 06:33:56;;;;;;;4.82;2.03;;;1.80;99.90;;;;;;5010156;28;20133;-71
2023/04/03 06:36:22;;;;;;;3.80;1.33;;;1.80;99.90;;;;;;5009318;28;20054;-72
2023/04/03 06:38:48;;;;;;;5.80;1.60;;;1.90;99.90;;;;;;5010067;28;20082;-70
2023/04/03 06:41:14;;;;;;;;;;;1.90;99.90;;;;;;5010208;28;20114;-71
2023/04/03 06:43:40;;;;;;;5.13;1.73;;;2.40;99.90;;;;;;5023752;28;19925;-70
2023/04/03 06:46:06;;;;;;;4.72;1.52;;;2.30;99.90;;;;;;5026432;28;20198;-67
2023/04/03 06:48:32;;;;;;;2.95;1.30;;;2.10;99.90;;;;;;5011299;28;20045;-71
2023/04/03 06:50:57;;;;;;;4.75;1.10;;;2.10;99.90;;;;;;5008914;28;20115;-70
2023/04/03 06:53:23;;;;;;;9.63;1.70;;;2.20;99.90;;;;;;5010033;28;20158;-72
2023/04/03 06:55:49;;;;;;;3.50;1.50;;;2.20;99.90;;;;;;5054104;28;20086;-70
2023/04/03 06:58:17;;;;;;;4.60;1.45;;;2.30;99.90;;;;;;5077096;28;20069;-70
2023/04/03 07:00:43;;;;;;;5.78;1.73;;;2.30;99.90;;;;;;5011404;28;20069;-70
2023/04/03 07:03:08;;;;;;;5.57;1.40;;;2.40;99.90;;;;;;5008810;28;20396;-71
2023/04/03 07:05:34;;;;;;;7.47;1.75;;;2.40;99.90;;;;;;4991656;28;20052;-70
2023/04/03 07:08:00;;;;;;;6.07;1.65;;;2.50;99.90;;;;;;5014081;28;20038;-70
2023/04/03 07:10:26;;;;;;;7.97;1.80;;;2.50;99.90;;;;;;5009958;28;20049;-71
2023/04/03 07:12:52;;;;;;;1.80;1.20;;;2.60;99.90;;;;;;5009853;28;20402;-70
2023/04/03 07:15:18;;;;;;;3.08;1.10;;;2.70;99.90;;;;;;4991843;28;20050;-70
2023/04/03 07:17:43;;;;;;;7.78;1.83;;;2.80;99.90;;;;;;5008664;28;20429;-70
2023/04/03 07:20:10;;;;;;;7.45;1.80;;;2.80;99.90;;;;;;5008155;28;20060;-70
2023/04/03 07:22:36;;;;;;;5.05;1.63;;;2.80;99.90;;;;;;5019968;28;20061;-71
2023/04/03 07:25:02;;;;;;;;;;;2.90;99.90;;;;;;5028253;28;20049;-71
2023/04/03 07:27:28;;;;;;;3.17;1.30;;;2.90;99.90;;;;;;5011516;28;19927;-70
2023/04/03 07:29:55;;;;;;;2.72;1.25;;;3.00;99.90;;;;;;5029169;28;20106;-70
2023/04/03 07:32:21;;;;;;;10.98;1.42;;;3.10;99.90;;;;;;5016946;28;20087;-71
2023/04/03 07:34:47;;;;;;;2.90;1.00;;;3.70;99.90;;;;;;4991987;28;20411;-70
2023/04/03 07:37:12;;;;;;;1.52;1.00;;;3.30;99.90;;;;;;5009047;28;20042;-71
2023/04/03 07:39:38;;;;;;;5.15;1.38;;;3.50;99.90;;;;;;5009178;28;20490;-71
2023/04/03 07:42:04;;;;;;;4.60;1.63;;;3.40;99.90;;;;;;4991615;28;20098;-70
2023/04/03 07:44:30;;;;;;;2.33;1.38;;;3.60;99.90;;;;;;5009844;28;20395;-70
2023/04/03 07:46:56;;;;;;;3.15;1.27;;;3.70;99.90;;;;;;5008295;28;20142;-70
2023/04/03 07:49:25;;;;;;;3.65;1.50;;;3.90;99.90;;;;;;5008703;28;20504;-70
2023/04/03 07:51:52;;;;;;;7.65;1.50;;;3.80;99.90;;;;;;5017930;28;20049;-70
2023/04/03 07:54:18;;;;;;;3.58;1.52;;;3.90;99.90;;;;;;5016623;28;20085;-70
2023/04/03 07:56:44;;;;;;;7.88;1.20;;;4.00;99.90;;;;;;5008952;28;20093;-74
2023/04/03 07:59:11;;;;;;;;;;;4.00;99.90;;;;;;4991282;28;20073;-78
2023/04/03 08:01:37;;;;;;;5.28;1.50;;;4.10;99.90;;;;;;5020734;28;19925;-66
2023/04/03 08:04:02;;;;;;;3.65;1.10;;;4.30;99.90;;;;;;5028828;28;20182;-71
2023/04/03 08:06:34;;;;;;;4.10;1.13;;;4.40;99.90;;;;;;5025681;28;20049;-74
2023/04/03 08:09:00;;;;;;;3.33;1.20;;;4.40;99.90;;;;;;5022153;28;20083;-67
2023/04/03 08:11:26;;;;;;;3.42;1.15;;;4.50;99.90;;;;;;5008420;28;20054;-79
2023/04/03 08:13:53;;;;;;;3.45;1.20;;;4.60;99.90;;;;;;5008715;28;20522;-73
2023/04/03 08:16:22;;;;;;;3.15;1.20;;;4.70;99.90;;;;;;5008084;28;20042;-75
2023/04/03 08:18:47;;;;;;;1.48;1.10;;;4.90;99.90;;;;;;5008254;28;20058;-74
2023/04/03 08:21:13;;;;;;;3.70;1.15;;;4.80;99.90;;;;;;4990252;28;20057;-76
2023/04/03 08:23:43;;;;;;;2.13;1.10;;;4.90;99.90;;;;;;5027480;28;20060;-73
2023/04/03 08:26:15;;;;;;;5.53;1.33;;;5.00;99.90;;;;;;5010785;28;20053;-74
2023/04/03 08:28:41;;;;;;;5.55;0.95;;;5.00;99.90;;;;;;4998216;28;20053;-75
2023/04/03 08:31:11;;;;;;;1.55;1.15;;;5.20;99.90;;;;;;5015618;28;20429;-82
2023/04/03 08:33:38;;;;;;;3.60;1.17;;;5.20;99.90;;;;;;5008875;28;20048;-80
2023/04/03 08:36:07;;;;;;;3.03;1.30;;;5.20;99.90;;;;;;5002631;28;20045;-79
2023/04/03 08:38:36;;;;;;;1.35;1.25;;;5.30;99.90;;;;;;4990647;28;20038;-79
2023/04/03 08:41:11;;;;;;;1.90;1.25;;;5.30;99.90;;;;;;4992218;28;20077;-78
2023/04/03 08:43:54;;;;;;;3.95;1.20;;;5.30;99.90;;;;;;4991053;28;20394;-76
2023/04/03 08:46:23;;;;;;;2.38;1.10;;;5.40;99.90;;;;;;4989303;28;20053;-78
2023/04/03 08:48:50;;;;;;;1.73;1.13;;;5.80;99.90;;;;;;4973837;28;20054;-77
2023/04/03 08:51:20;;;;;;;4.55;1.20;;;5.60;99.90;;;;;;5021853;28;20471;-76
2023/04/03 08:54:04;;;;;;;5.15;1.33;;;5.70;99.90;;;;;;4983883;28;20124;-72
2023/04/03 08:56:33;;;;;;;3.25;1.15;;;5.70;99.90;;;;;;5001428;28;20102;-72
2023/04/03 08:59:13;;;;;;;1.80;0.90;;;5.80;99.90;;;;;;5015954;28;20457;-73
2023/04/03 09:01:41;;;;;;;2.47;1.10;;;5.90;99.90;;;;;;5040103;28;20060;-70
2023/04/03 09:04:17;;;;;;;3.20;1.10;;;5.90;99.90;;;;;;5007552;28;20046;-72
2023/04/03 09:06:48;;;;;;;3.37;1.20;;;6.00;99.90;;;;;;4997444;28;20081;-71
2023/04/03 09:09:23;;;;;;;3.75;1.08;;;6.00;99.90;;;;;;5005701;28;20046;-71
2023/04/03 09:12:09;;;;;;;6.93;1.20;;;6.10;99.90;;;;;;5008171;28;20078;-72
2023/04/03 09:14:46;;;;;;;3.33;1.13;;;6.20;99.90;;;;;;5007396;28;20041;-71
2023/04/03 09:17:21;;;;;;;3.03;0.95;;;6.30;98.20;;;;;;5006394;28;20056;-72
2023/04/03 09:19:59;;;;;;;0.75;0.63;;;6.30;97.20;;;;;;4995964;28;20682;-71
2023/04/03 09:22:27;;;;;;;2.75;1.40;;;6.40;96.30;;;;;;5039197;28;20509;-71
2023/04/03 09:25:01;;;;;;;2.75;0.90;;;6.50;96.10;;;;;;5005260;28;20054;-71
2023/04/03 09:27:26;;;;;;;1.05;0.80;;;6.50;95.50;;;;;;5007159;28;20042;-71
2023/04/03 09:29:54;;;;;;;2.28;1.00;;;6.50;96.00;;;;;;5007227;28;20056;-70
2023/04/03 09:32:33;;;;;;;1.30;0.82;;;6.60;96.10;;;;;;5005956;28;20054;-73
2023/04/03 09:35:04;;;;;;;8.75;1.00;;;6.70;95.10;;;;;;4989850;28;20146;-72
2023/04/03 09:37:38;;;;;;;4.70;0.98;;;6.70;94.00;;;;;;5006955;28;20034;-73
2023/04/03 09:40:05;;;;;;;2.00;0.95;;;6.90;92.60;;;;;;5007298;28;20061;-72
2023/04/03 09:42:32;;;;;;;0.80;0.80;;;6.90;92.30;;;;;;5007068;28;20056;-73
2023/04/03 09:44:59;;;;;;;3.42;1.08;;;7.00;91.40;;;;;;5007185;28;20411;-71
2023/04/03 09:47:25;;;;;;;4.28;1.08;;;7.00;90.10;;;;;;5005709;28;20816;-71
2023/04/03 09:49:51;;;;;;;3.50;1.10;;;7.00;89.20;;;;;;5007183;28;20085;-71
2023/04/03 09:52:24;;;;;;;1.77;0.90;;;7.10;87.50;;;;;;5010282;28;20659;-71
2023/04/03 09:54:50;;;;;;;6.47;1.35;;;7.10;85.50;;;;;;5010917;28;20046;-71
2023/04/03 09:57:17;;;;;;;1.85;0.70;;;7.10;84.10;;;;;;5010300;28;20485;-71
2023/04/03 09:59:47;;;;;;;3.28;1.15;;;7.20;83.90;;;;;;5010677;28;20062;-71
2023/04/03 10:02:24;;;;;;;0.88;0.65;;;7.30;84.40;;;;;;5009179;28;20531;-72
2023/04/03 10:04:50;;;;;;;4.85;1.48;;;7.30;83.40;;;;;;5012370;28;20138;-70
2023/04/03 10:07:37;;;;;;;4.55;1.23;;;7.30;84.30;;;;;;5010719;28;20045;-71
2023/04/03 10:10:23;;;;;;;2.22;1.15;;;7.40;83.60;;;;;;5010782;28;20053;-71
2023/04/03 10:13:07;;;;;;;2.28;0.85;;;7.50;80.80;;;;;;4994205;28;20058;-71
2023/04/03 10:15:44;;;;;;;3.15;1.38;;;7.60;82.00;;;;;;5001431;28;20069;-71
2023/04/03 10:18:42;;;;;;;1.95;0.93;;;7.80;81.80;;;;;;4993708;28;20038;-71
2023/04/03 10:21:33;;;;;;;5.35;1.20;;;7.80;81.10;;;;;;5016155;28;20042;-71
2023/04/03 10:24:14;;;;;;;1.27;0.90;;;7.90;81.30;;;;;;4997336;28;20474;-71
2023/04/03 10:27:03;;;;;;;2.05;0.90;;;8.00;78.00;;;;;;5009934;28;20056;-71
2023/04/03 10:29:44;;;;;;;0.98;0.73;;;8.20;77.80;;;;;;5001500;28;20050;-71
2023/04/03 10:32:37;;;;;;;2.65;0.80;;;8.30;77.50;;;;;;4979545;28;20038;-71
2023/04/03 10:35:24;;;;;;;3.30;1.10;;;8.30;74.20;;;;;;5009113;28;20110;-71
2023/04/03 10:38:14;;;;;;;5.30;1.70;;;8.30;74.80;;;;;;5009571;28;20041;-73
2023/04/03 10:40:57;;;;;;;3.50;1.02;;;8.30;75.60;;;;;;5010001;28;20136;-70
2023/04/03 10:43:37;;;;;;;3.53;1.20;;;8.50;73.80;;;;;;5009914;28;20513;-69
2023/04/03 10:46:19;;;;;;;2.53;1.00;;;8.60;74.10;;;;;;5010066;28;20551;-72
2023/04/03 10:49:00;;;;;;;2.63;0.75;;;8.80;73.50;;;;;;5009244;28;20057;-69
2023/04/03 10:51:46;;;;;;;2.97;1.00;;;9.00;73.00;;;;;;5010354;28;20041;-71
2023/04/03 10:54:31;;;;;;;2.95;1.10;;;9.20;72.80;;;;;;5044404;28;20047;-71
2023/04/03 10:57:11;;;;;;;2.63;1.08;;;9.40;72.10;;;;;;4997807;28;20042;-72
2023/04/03 10:59:49;;;;;;;1.98;1.15;;;9.60;71.50;;;;;;5009961;28;20066;-71
2023/04/03 11:02:24;;;;;;;4.63;0.93;;;9.60;71.50;;;;;;5007088;28;20045;-71
2023/04/03 11:05:05;;;;;;;1.63;0.80;;;9.70;71.20;;;;;;5008440;28;20062;-71
2023/04/03 11:07:39;;;;;;;3.20;0.82;;;9.90;70.00;;;;;;5009318;28;20116;-72
2023/04/03 11:10:44;;;;;;;2.30;0.80;;;10.10;68.60;;;;;;5010150;28;20050;-72
2023/04/03 11:13:50;;;;;;;1.88;0.85;;;10.30;67.80;;;;;;5029354;28;20459;-73
2023/04/03 11:16:22;;;;;;;3.88;0.95;;;10.50;64.20;;;;;;4982797;28;20065;-71
2023/04/03 11:19:21;;;;;;;1.80;0.90;;;10.70;64.80;;;;;;5008870;28;20050;-77
2023/04/03 11:22:09;;;;;;;1.45;0.90;;;10.90;63.20;;;;;;5008749;28;20073;-74
2023/04/03 11:24:39;;;;;;;1.42;0.90;;;11.10;63.20;;;;;;5010581;28;20050;-78
2023/04/03 11:27:11;;;;;;;1.77;0.88;;;11.30;62.90;;;;;;5002035;28;20053;-75
2023/04/03 11:29:40;;;;;;;3.65;1.10;;;11.50;63.60;;;;;;4991825;28;20054;-74
2023/04/03 11:32:29;;;;;;;3.50;1.20;;;11.70;63.90;;;;;;4991104;28;20045;-74
2023/04/03 11:35:01;;;;;;;1.58;0.85;;;11.90;63.80;;;;;;5008143;28;20085;-75
2023/04/03 11:37:33;;;;;;;4.47;1.30;;;12.10;64.00;;;;;;5008897;28;20096;-75
2023/04/03 11:40:32;;;;;;;5.28;0.90;;;12.40;63.50;;;;;;5009280;28;20088;-75
2023/04/03 11:43:21;;;;;;;1.95;1.00;;;12.70;62.00;;;;;;5009337;28;20426;-76
2023/04/03 11:45:59;;;;;;;1.33;0.80;;;13.00;60.70;;;;;;4991909;28;20054;-77
2023/04/03 11:48:33;;;;;;;1.65;0.93;;;13.30;60.60;;;;;;5007365;28;20046;-76
2023/04/03 11:51:20;;;;;;;2.80;0.90;;;13.60;60.90;;;;;;5008286;28;20064;-77
2023/04/03 11:53:46;;;;;;;1.30;0.88;;;13.90;60.40;;;;;;5008546;28;20081;-75
2023/04/03 11:56:18;;;;;;;;;;;14.00;60.70;;;;;;5009602;28;20057;-80
2023/04/03 11:59:13;;;;;;;1.83;0.93;;;14.10;59.60;;;;;;5002363;28;19995;-77
2023/04/03 12:01:44;;;;;;;1.80;0.90;;;14.30;59.60;;;;;;5004386;28;20064;-70
2023/04/03 12:04:14;;;;;;;1.20;0.70;;;14.30;56.40;;;;;;5008091;28;20042;-73
2023/04/03 12:06:40;;;;;;;3.00;0.82;;;14.50;57.50;;;;;;5006840;28;20226;-71
2023/04/03 12:09:41;;;;;;;2.13;0.95;;;14.60;55.80;;;;;;5010298;28;20146;-70
2023/04/03 12:12:30;;;;;;;3.53;0.90;;;14.80;54.40;;;;;;5018482;28;20049;-74
2023/04/03 12:15:11;;;;;;;2.08;1.00;;;14.90;54.60;;;;;;5007653;28;20391;-71
2023/04/03 12:17:37;;;;;;;2.75;0.98;;;15.00;55.30;;;;;;5006431;28;20577;-77
2023/04/03 12:20:43;;;;;;;1.27;0.88;;;15.20;54.40;;;;;;5007562;28;20049;-72
2023/04/03 12:23:28;;;;;;;2.97;0.80;;;15.20;52.30;;;;;;4973766;28;20103;-73
2023/04/03 12:26:04;;;;;;;1.63;0.70;;;15.00;52.00;;;;;;5008489;28;20038;-74
2023/04/03 12:28:37;;;;;;;1.30;0.75;;;14.90;52.30;;;;;;4990455;28;20132;-75
2023/04/03 12:31:05;;;;;;;2.50;1.00;;;15.00;53.10;;;;;;5008284;28;20594;-74
2023/04/03 12:33:44;;;;;;;1.98;0.90;;;15.20;54.30;;;;;;5007097;28;20052;-75
2023/04/03 12:36:19;;;;;;;2.47;1.30;;;15.40;55.30;;;;;;5007935;28;20050;-75
2023/04/03 12:39:07;;;;;;;3.65;1.50;;;15.80;54.70;;;;;;5007905;28;20061;-75
2023/04/03 12:41:51;;;;;;;3.05;1.10;;;16.10;53.80;;;;;;5007998;28;20196;-75
2023/04/03 12:44:19;;;;;;;5.50;1.23;;;16.40;51.80;;;;;;5008589;28;20046;-75
2023/04/03 12:46:48;;;;;;;0.80;0.80;;;16.70;51.20;;;;;;5007297;28;20049;-75
2023/04/03 12:49:26;;;;;;;2.15;0.90;;;17.10;50.60;;;;;;4990990;28;20065;-75
2023/04/03 12:51:52;;;;;;;2.97;0.82;;;17.70;50.40;;;;;;5025366;28;20119;-75
2023/04/03 12:54:37;;;;;;;2.15;1.10;;;18.40;50.20;;;;;;5008487;28;20054;-75
2023/04/03 12:57:15;;;;;;;1.63;0.90;;;19.40;50.40;;;;;;5008287;28;20178;-75
2023/04/03 12:59:43;;;;;;;2.85;0.90;;;19.90;48.40;;;;;;5011524;28;20061;-75
2023/04/03 13:02:30;;;;;;;2.03;0.80;;;20.40;48.50;;;;;;5027425;28;20045;-75
2023/04/03 13:05:00;;;;;;;;;;;21.00;46.50;;;;;;5027538;28;20402;-75
2023/04/03 13:07:33;;;;;;;4.25;0.98;;;21.20;46.30;;;;;;5027946;28;20366;-75
2023/04/03 13:10:02;;;;;;;3.20;1.20;;;21.60;44.90;;;;;;5028069;28;20049;-75
2023/04/03 13:12:29;;;;;;;2.30;0.63;;;22.00;44.00;;;;;;5012802;28;20521;-77